KSOP/SOP METAR and TAF weather

Enter ICAO airport designator
Station Type Date Time Source
KSOP METAR 2020/07/15 00:56 UTC NOAA

KSOP 150056Z AUTO 00000KT 10SM CLR 27/23 A3003 RMK AO2 SLP170 T02670228 PNO $


Station Type Date Time Source
KSOP Decoded METAR 2020/07/15 00:56 UTC NOAA

Pinehurst/Southern Pines, Moore County Airport, NC, United States (KSOP) 35-14N 079-24W
Jul 14, 2020 - 08:56 PM EDT / 2020.07.15 0056 UTC
Wind: Calm:0
Visibility: 10 mile(s):0
Sky conditions: clear
Temperature: 80.1 F (26.7 C)
Dew Point: 73.0 F (22.8 C)
Relative Humidity: 79%
Pressure (altimeter): 30.03 in. Hg (1016 hPa)
ob: KSOP 150056Z AUTO 00000KT 10SM CLR 27/23 A3003 RMK AO2 SLP170 T02670228 PNO
cycle: 1

Station Type Date Time Source
KSOP TAF UTC NOAA

Error!

Example: see airport list